• Join FlightAware (Why Join?)
  • Login
  • US Flag 
04:08PM EDT


 

Airport Tracker/Info


-or-


 

Live Flight TrackerFlight Track Log ✈ AWE3202 ✈ 03-May-2013 ✈ KJAX - KDCA

Flight Track Log - Related Links

Times and Time Zones

All times are in EDT time to prevent confusion due to time zone crossing. See the AWE3202 flight status page for this flight to view local times or setup timezone preferences in your user account.

Time Position Orientation Groundspeed Altitude Reporting Facility
EDT Latitude Longitude Course Direction KTS MPH feet Rate Location/Type
06:50PM 30.4717 -81.6753 19° North 174 200 700  Level Jacksonville Center
06:51PM 30.5108 -81.6386 39° Northeast 239 275 2,500 1,620 Climbing Jacksonville Center
06:52PM 30.5358 -81.6408 356° North 252 290 3,200 2,760 Climbing Jacksonville Center
06:52PM 30.5736 -81.6453 354° North 254 292 5,000 2,580 Climbing Jacksonville Center
06:53PM 30.6092 -81.6472 357° North 257 296 5,800 2,460 Climbing Jacksonville Center
06:54PM 30.6822 -81.6486 359° North 290 334 8,700 3,000 Climbing Jacksonville Center
06:55PM 30.9699 -81.2354 19° North  Level FlightAware Approximate
06:55PM 30.7678 -81.6450 North 290 334 11,800  Level Jacksonville Center
06:56PM 31.0702 -81.1953 19° North  Level FlightAware Approximate
06:56PM 30.8511 -81.6367 North 295 339 14,300  Level Jacksonville Center
06:57PM 30.9408 -81.6089 15° North 305 351 16,800 2,460 Climbing Jacksonville Center
06:58PM 31.0322 -81.5786 16° North 326 375 19,300 2,160 Climbing Jacksonville Center
06:59PM 31.1239 -81.5456 17° North 332 382 21,200 1,800 Climbing Jacksonville Center
07:00PM 31.2175 -81.5128 17° North 338 389 23,000 1,680 Climbing Jacksonville Center
07:01PM 31.3172 -81.4844 14° North 350 403 24,600 1,500 Climbing Jacksonville Center
07:02PM 31.4297 -81.4439 17° North 367 422 26,000 1,140 Climbing Jacksonville Center
07:03PM 31.5272 -81.4083 17° North 391 450 26,900 960 Climbing Jacksonville Center
07:04PM 31.6522 -81.3672 16° North 411 473 28,000 1,080 Climbing Jacksonville Center
07:05PM 31.7664 -81.3286 16° North 418 481 29,100 1,140 Climbing Jacksonville Center
07:06PM 31.8725 -81.2928 16° North 424 488 30,300 1,320 Climbing Jacksonville Center
07:07PM 31.9822 -81.2269 27° Northeast 430 495 31,800 1,260 Climbing Jacksonville Center
07:08PM 32.0772 -81.1469 36° Northeast 425 489 32,900 1,140 Climbing Jacksonville Center
07:09PM 32.1908 -81.0564 34° Northeast 425 489 34,100 900 Climbing Jacksonville Center
07:10PM 32.2878 -80.9758 35° Northeast 437 503 34,700 420 Climbing Jacksonville Center
07:11PM 32.3764 -80.9000 36° Northeast 437 503 35,000 120 Climbing Jacksonville Center
07:12PM 32.4772 -80.8142 36° Northeast 443 510 35,000  Level Jacksonville Center
07:13PM 32.5781 -80.7281 36° Northeast 443 510 35,000  Level Jacksonville Center
07:14PM 32.6769 -80.6442 36° Northeast 443 510 35,000  Level Jacksonville Center
07:15PM 32.7797 -80.5578 35° Northeast 443 510 35,000  Level Jacksonville Center
07:16PM 32.8803 -80.4708 36° Northeast 443 510 35,000  Level Jacksonville Center
07:17PM 32.9972 -80.3736 35° Northeast 454 522 35,000  Level Jacksonville Center
07:18PM 33.0958 -80.2892 36° Northeast 442 509 35,000  Level Jacksonville Center
07:19PM 33.1961 -80.1994 37° Northeast 442 509 35,000  Level Jacksonville Center
07:20PM 33.2986 -80.1142 35° Northeast 448 516 35,000  Level Jacksonville Center
07:21PM 33.3992 -80.0264 36° Northeast 448 516 35,000  Level Jacksonville Center
07:22PM 33.5014 -79.9361 36° Northeast 448 516 35,000  Level Jacksonville Center
07:23PM 33.6036 -79.8503 35° Northeast 448 516 35,000  Level Jacksonville Center
07:24PM 33.7036 -79.7594 37° Northeast 448 516 35,000  Level Jacksonville Center
07:25PM 33.8036 -79.6733 36° Northeast 443 510 35,000  Level Jacksonville Center
07:26PM 33.9036 -79.5822 37° Northeast 443 510 35,000  Level Jacksonville Center
07:27PM 34.0033 -79.4933 36° Northeast 443 510 35,000  Level Jacksonville Center
07:28PM 34.0850 -79.4225 36° Northeast 443 510 35,000  Level Jacksonville Center
07:29PM 34.1908 -79.3303 36° Northeast 437 503 35,000  Level Jacksonville Center
07:31PM 34.3931 -79.1958 29° Northeast 457 526 35,000  Level Washington Center
07:32PM 34.5056 -79.1253 27° Northeast 452 520 35,000  Level Washington Center
07:33PM 34.6181 -79.0619 25° Northeast 447 514 35,000  Level Washington Center
07:34PM 34.7283 -78.9983 25° Northeast 441 507 35,000  Level Washington Center
07:35PM 34.8386 -78.9347 25° Northeast 436 502 35,000  Level Washington Center
07:36PM 34.9469 -78.8683 27° Northeast 429 494 35,000  Level Washington Center
07:37PM 35.0592 -78.8044 25° Northeast 429 494 35,000  Level Washington Center
07:38PM 35.1694 -78.7400 26° Northeast 429 494 35,000  Level Washington Center
07:39PM 35.2797 -78.6758 25° Northeast 429 494 35,000 -60 Level Washington Center
07:40PM 35.4047 -78.6017 26° Northeast 435 501 34,900 -780 Descending Washington Center
07:42PM 35.6292 -78.4694 26° Northeast 435 501 32,700 -960 Descending Washington Center
07:43PM 35.7328 -78.4067 26° Northeast 429 494 32,000 -780 Descending Washington Center
07:44PM 35.8408 -78.3414 26° Northeast 423 487 31,200 -540 Descending Washington Center
07:45PM 35.9464 -78.2783 26° Northeast 423 487 31,000 -120 Descending Washington Center
07:46PM 36.0544 -78.2153 25° Northeast 423 487 31,000 -60 Level Washington Center
07:47PM 36.1600 -78.1492 27° Northeast 423 487 30,900 -1,200 Descending Washington Center
07:48PM 36.2658 -78.0856 26° Northeast 423 487 28,700 -2,040 Descending Washington Center
07:49PM 36.3692 -78.0244 25° Northeast 417 480 27,000 -900 Descending Washington Center
07:50PM 36.4686 -77.9606 27° Northeast 410 472 27,000 -60 Level Washington Center
07:51PM 36.5700 -77.8989 26° Northeast 404 465 26,900 -420 Descending Washington Center
07:52PM 36.6692 -77.8369 27° Northeast 399 459 26,200 -840 Descending Washington Center
07:53PM 36.7683 -77.7803 25° Northeast 394 453 25,300 -960 Descending Washington Center
07:54PM 36.8653 -77.7181 27° Northeast 394 453 24,400 -900 Descending Washington Center
07:55PM 36.9603 -77.6583 27° Northeast 389 448 23,500 -840 Descending Washington Center
07:56PM 37.0550 -77.6011 26° Northeast 383 441 22,700 -780 Descending Washington Center
07:57PM 37.1436 -77.5433 27° Northeast 371 427 22,000 -360 Descending Washington Center
07:58PM 37.2364 -77.4858 26° Northeast 366 421 22,000  Level Washington Center
07:59PM 37.3247 -77.4331 25° Northeast 366 421 22,000  Level Washington Center
08:00PM 37.4194 -77.3831 23° Northeast 361 415 22,000  Level Washington Center
08:01PM 37.5178 -77.3617 10° North 361 415 22,000  Level Washington Center
08:02PM 37.6183 -77.3353 12° North 356 410 22,000  Level Washington Center
08:03PM 37.7147 -77.3061 13° North 356 410 22,000 -660 Level Washington Center
08:04PM 37.8153 -77.2819 11° North 356 410 20,700 -1,680 Descending Washington Center
08:05PM 37.9114 -77.2578 11° North 356 410 18,600 -2,220 Descending Washington Center
08:06PM 38.0056 -77.2308 13° North 351 404 16,300 -2,100 Descending Washington Center
08:07PM 38.0850 -77.2142 North 344 396 14,500 -2,040 Descending Washington Center
08:08PM 38.1750 -77.1922 11° North 333 383 12,400 -2,100 Descending Washington Center
08:09PM 38.2714 -77.1600 15° North 328 377 10,300 -1,200 Descending Washington Center
08:10PM 38.3486 -77.1483 North 318 366 10,000 -180 Descending Washington Center
08:11PM 38.4386 -77.1292 North 313 360 10,000  Level Washington Center
08:12PM 38.5264 -77.1097 10° North 318 366 10,000  Level Washington Center
08:13PM 38.6122 -77.0903 10° North 313 360 10,000 -420 Level Washington Center
08:14PM 38.7000 -77.0667 12° North 293 337 9,200 -1,320 Descending Potomac TRACON
08:15PM 38.7833 -77.0833 351° North 298 343 7,400 -1,680 Descending Potomac TRACON
08:16PM 38.8500 -77.1500 322° Northwest 291 335 5,700 -1,380 Descending Potomac TRACON
08:17PM 38.9000 -77.2167 314° West 263 303 4,700 -780 Descending Potomac TRACON
08:18PM 38.9500 -77.2167 360° North 174 200 4,200 -840 Descending Potomac TRACON
08:19PM 38.9833 -77.1833 38° Northeast 170 196 3,100 -1,020 Descending Potomac TRACON
08:20PM 38.9500 -77.1333 131° Southeast 163 188 2,200 -840 Descending Potomac TRACON